createdAt,value
2019-05-15T04:31:02.073Z,94.80
2019-05-15T04:41:50.182Z,94.70
2019-05-15T05:03:00.862Z,92.00
2019-05-15T05:20:42.384Z,90.00
2019-05-15T05:23:40.841Z,90.00
2019-05-15T05:29:27.997Z,89.30
2019-05-15T05:32:03.121Z,88.80
2019-05-15T05:34:32.166Z,87.90
2019-05-15T05:37:28.050Z,87.30
2019-05-15T06:24:30.639Z,58.10
2019-05-15T06:26:59.004Z,55.90
2019-05-15T06:29:28.331Z,55.80
2019-05-15T06:32:21.023Z,56.30
2019-05-15T06:34:54.607Z,56.10
2019-05-15T06:49:30.181Z,49.40
2019-05-15T06:55:24.734Z,49.70
2019-05-15T06:57:53.152Z,47.70
2019-05-15T07:00:21.883Z,44.80
2019-05-15T07:02:50.602Z,44.30
2019-05-15T07:05:19.672Z,42.60
2019-05-15T07:07:48.833Z,40.40
2019-05-15T07:10:18.977Z,38.80
2019-05-15T07:12:51.265Z,37.50
2019-05-15T07:15:18.508Z,37.60
2019-05-15T07:17:48.414Z,39.70
2019-05-15T07:20:19.278Z,38.70
2019-05-15T07:22:49.076Z,38.10
2019-05-15T07:25:18.903Z,39.10
2019-05-15T07:27:47.961Z,38.50
2019-05-15T07:30:18.799Z,37.90
2019-05-15T07:32:48.742Z,38.50
2019-05-15T07:35:19.146Z,38.10
2019-05-15T07:37:47.989Z,35.70
2019-05-15T07:40:19.419Z,34.50
2019-05-15T07:42:49.004Z,33.80
2019-05-15T07:45:19.888Z,33.70
2019-05-15T07:47:49.045Z,40.20
2019-05-15T07:50:19.685Z,41.20
2019-05-15T07:52:48.671Z,42.10
2019-05-15T07:55:18.494Z,43.80
2019-05-15T07:57:49.636Z,45.30
2019-05-15T08:00:19.365Z,45.90
2019-05-15T08:02:48.328Z,47.10
2019-05-15T08:05:18.322Z,45.10
2019-05-15T08:07:49.008Z,43.20
2019-05-15T08:10:23.563Z,44.60
2019-05-15T08:12:52.637Z,44.90
2019-05-15T08:15:22.066Z,45.40
2019-05-15T08:18:03.329Z,46.30
2019-05-15T08:20:23.239Z,46.20
2019-05-15T08:22:52.568Z,45.20
2019-05-15T08:25:34.015Z,46.50
2019-05-15T08:27:52.450Z,45.40
2019-05-15T08:30:21.314Z,44.40
2019-05-15T08:32:51.720Z,44.70
2019-05-15T08:35:20.466Z,47.20
2019-05-15T08:37:49.635Z,46.00
2019-05-15T08:40:18.470Z,47.00
2019-05-15T08:42:57.207Z,45.60
2019-05-15T08:45:18.857Z,48.40
2019-05-15T08:47:49.275Z,47.50
2019-05-15T08:50:19.395Z,45.90
2019-05-15T08:52:48.804Z,45.70
2019-05-15T08:55:20.156Z,45.30
2019-05-15T08:57:55.679Z,46.40
2019-05-15T09:00:19.234Z,46.10
2019-05-15T09:02:48.850Z,44.90
2019-05-15T09:05:18.779Z,44.60
2019-05-15T09:07:48.651Z,45.80
2019-05-15T09:10:18.418Z,45.60
2019-05-15T09:12:46.986Z,44.10
2019-05-15T09:15:18.305Z,44.20
2019-05-15T09:17:48.565Z,42.80
2019-05-15T09:20:19.203Z,44.00
2019-05-15T09:22:48.954Z,43.70
2019-05-15T09:25:19.339Z,44.60
2019-05-15T09:27:48.930Z,42.30
2019-05-15T09:30:18.304Z,43.20
2019-05-15T09:32:48.418Z,41.80
2019-05-15T09:35:19.988Z,41.90
2019-05-15T09:37:48.990Z,40.10
2019-05-15T09:40:18.774Z,42.80
2019-05-15T09:42:48.677Z,42.90
2019-05-15T09:45:19.235Z,43.60
2019-05-15T09:47:48.552Z,42.70
2019-05-15T09:50:19.376Z,44.30
2019-05-15T09:52:50.151Z,45.30
2019-05-15T09:55:18.536Z,42.80
2019-05-15T09:57:49.039Z,43.50
2019-05-15T10:00:19.137Z,45.00
2019-05-15T10:02:48.745Z,43.50
2019-05-15T10:05:18.771Z,44.30
2019-05-15T10:07:50.757Z,41.70
2019-05-15T10:10:19.614Z,44.70
2019-05-15T10:12:49.493Z,44.00
2019-05-15T10:15:18.751Z,44.70
2019-05-15T10:30:34.179Z,42.00
2019-05-15T10:33:25.717Z,43.50
2019-05-15T10:35:54.611Z,43.20
2019-05-15T10:38:23.558Z,42.50
2019-05-15T10:41:07.506Z,41.40
2019-05-15T10:43:46.950Z,42.90
2019-05-15T10:46:14.407Z,40.00
2019-05-15T10:48:58.397Z,41.10
2019-05-15T10:51:28.625Z,41.90
2019-05-15T10:53:56.934Z,44.00
2019-05-15T10:56:25.758Z,44.90
2019-05-15T10:58:54.458Z,44.50
2019-05-15T11:01:22.891Z,44.00
2019-05-15T11:03:51.601Z,43.30
2019-05-15T11:06:20.294Z,46.30
2019-05-15T11:08:51.409Z,47.30
2019-05-15T11:11:19.135Z,48.30
2019-05-15T11:13:47.565Z,45.00
2019-05-15T11:16:18.614Z,45.40
2019-05-15T11:18:48.243Z,46.70
2019-05-15T11:21:18.914Z,47.20
2019-05-15T11:23:49.422Z,48.30
2019-05-15T11:26:19.482Z,43.00
2019-05-15T11:28:49.707Z,43.90
2019-05-15T11:31:18.488Z,40.40
2019-05-15T11:33:49.282Z,41.50
2019-05-15T11:36:29.221Z,41.90
2019-05-15T11:38:53.328Z,45.70
2019-05-15T11:41:22.084Z,43.00
2019-05-15T11:43:50.614Z,42.80
2019-05-15T11:46:19.516Z,43.60
2019-05-15T11:48:49.796Z,45.30
2019-05-15T11:51:18.541Z,39.40
2019-05-15T11:53:49.203Z,41.20
2019-05-15T11:56:18.936Z,43.30
2019-05-15T11:58:47.589Z,45.70
2019-05-15T12:01:19.040Z,45.00
2019-05-15T12:03:46.933Z,42.00
2019-05-15T12:06:21.739Z,42.30
2019-05-15T12:08:46.304Z,43.60
2019-05-15T12:11:30.764Z,41.30
2019-05-15T12:13:45.493Z,40.70
2019-05-15T12:16:13.983Z,41.20
2019-05-15T12:18:42.597Z,39.00
2019-05-15T12:21:11.415Z,40.20
2019-05-15T12:23:40.307Z,41.80
2019-05-15T12:26:09.333Z,42.20
2019-05-15T12:28:40.582Z,39.90
2019-05-15T12:31:09.141Z,43.10
2019-05-15T12:33:38.391Z,41.90
2019-05-15T12:36:10.445Z,41.90
2019-05-15T12:38:39.734Z,42.40
2019-05-15T13:01:17.588Z,41.40
2019-05-15T13:03:42.455Z,42.90
2019-05-15T13:06:11.022Z,41.30
2019-05-15T13:08:39.873Z,40.50
2019-05-15T13:11:14.386Z,39.70
2019-05-15T13:13:39.369Z,40.70
2019-05-15T13:16:07.990Z,42.20
2019-05-15T13:18:38.648Z,43.20
2019-05-15T13:21:07.403Z,41.70
2019-05-15T13:23:35.953Z,41.40
2019-05-15T13:26:12.659Z,41.40
2019-05-15T13:28:35.089Z,40.60
2019-05-15T13:31:03.897Z,41.00
2019-05-15T13:33:32.738Z,42.30
2019-05-15T13:36:01.686Z,42.50
2019-05-15T13:38:30.258Z,44.50
2019-05-15T13:40:59.180Z,45.00
2019-05-15T13:43:28.998Z,47.40
2019-05-15T13:45:58.559Z,43.80
2019-05-15T13:48:29.251Z,43.00
2019-05-15T13:50:59.083Z,44.50
2019-05-15T13:53:28.041Z,43.70
2019-05-15T13:55:57.041Z,46.30
2019-05-15T13:58:28.045Z,46.60
2019-05-15T14:01:01.424Z,42.20
2019-05-15T14:03:30.396Z,42.80
2019-05-15T14:05:59.336Z,45.10
2019-05-15T14:08:28.729Z,46.60
2019-05-15T14:10:58.357Z,45.40
2019-05-15T14:13:28.602Z,44.40
2019-05-15T14:15:58.345Z,46.50
2019-05-15T14:18:28.632Z,43.30
2019-05-15T14:20:58.380Z,43.40
2019-05-15T14:23:29.505Z,42.50
2019-05-15T14:25:58.869Z,44.00
2019-05-15T14:28:28.622Z,43.80
2019-05-15T14:30:58.743Z,45.50
2019-05-15T14:33:29.151Z,44.60
2019-05-15T14:35:58.330Z,44.20
2019-05-15T14:38:29.082Z,45.00
2019-05-15T14:40:59.033Z,45.30
2019-05-15T14:43:29.320Z,44.30
2019-05-15T14:45:58.820Z,43.90
2019-05-15T14:48:28.186Z,43.30
2019-05-15T14:50:58.371Z,43.80
2019-05-15T14:53:29.509Z,43.20
2019-05-15T14:55:59.991Z,44.00
2019-05-15T14:58:28.099Z,44.70
2019-05-15T15:01:02.324Z,44.30
2019-05-15T15:03:28.895Z,41.50
2019-05-15T15:05:58.343Z,41.80
2019-05-15T15:08:29.177Z,43.30
2019-05-15T15:10:59.439Z,44.20
2019-05-15T15:13:28.851Z,44.40
2019-05-15T15:15:59.049Z,43.70
2019-05-15T15:18:28.282Z,46.70
2019-05-15T15:20:58.033Z,45.10
2019-05-15T15:23:28.313Z,44.20
2019-05-15T15:25:57.853Z,44.40
2019-05-15T15:28:26.495Z,43.90
2019-05-15T15:30:55.259Z,44.30
2019-05-15T15:33:24.013Z,44.70
2019-05-15T15:35:52.478Z,46.00
2019-05-15T15:38:38.077Z,45.50
2019-05-15T15:40:52.506Z,45.00
2019-05-15T15:43:21.528Z,45.80
2019-05-15T15:45:50.360Z,45.70
2019-05-15T15:48:19.481Z,46.60
2019-05-15T15:50:48.770Z,47.20
2019-05-15T15:53:19.119Z,47.40
2019-05-15T15:55:48.922Z,45.80
2019-05-15T15:58:20.030Z,46.00
2019-05-15T16:00:49.008Z,46.10
2019-05-15T16:03:19.386Z,46.80
2019-05-15T16:05:48.861Z,47.40
2019-05-15T16:08:19.059Z,46.40
2019-05-15T16:10:48.333Z,48.50
2019-05-15T16:13:18.662Z,48.40
2019-05-15T16:15:48.765Z,49.00
2019-05-15T16:18:18.417Z,49.10
2019-05-15T16:20:50.002Z,49.60
2019-05-15T16:23:28.455Z,48.80
2019-05-15T16:25:58.264Z,49.90
2019-05-15T16:28:29.026Z,50.60
2019-05-15T16:30:58.638Z,50.60
2019-05-15T16:33:28.317Z,51.70
2019-05-15T16:35:58.124Z,50.40
2019-05-15T16:38:28.453Z,49.90
2019-05-15T16:40:58.231Z,50.70
2019-05-15T16:43:28.562Z,50.50
2019-05-15T16:45:58.624Z,48.60
2019-05-15T16:48:29.336Z,49.80
2019-05-15T16:50:58.538Z,50.70
2019-05-15T16:53:29.035Z,51.20
2019-05-15T17:05:35.665Z,52.50
2019-05-15T17:05:52.934Z,52.30
2019-05-15T17:08:08.838Z,53.10
2019-05-15T17:10:48.484Z,53.50
2019-05-15T17:13:24.851Z,54.30
2019-05-15T17:28:33.144Z,55.80
2019-05-15T17:40:41.730Z,58.20
2019-05-15T17:46:24.902Z,58.40
2019-05-15T17:48:56.430Z,58.60
2019-05-15T17:51:24.265Z,59.40
2019-05-15T17:53:53.183Z,60.40
2019-05-15T17:56:21.797Z,60.20
2019-05-15T17:58:50.632Z,60.00
2019-05-15T18:01:28.050Z,60.50
2019-05-15T18:03:59.164Z,61.00
2019-05-15T18:06:53.034Z,62.00
2019-05-15T18:09:30.110Z,60.30
2019-05-15T18:12:00.771Z,61.10
2019-05-15T18:14:47.370Z,62.20
2019-05-15T18:20:44.148Z,63.00
2019-05-15T18:23:13.560Z,63.10
2019-05-15T18:25:45.798Z,64.30
2019-05-15T18:28:14.882Z,64.30
2019-05-15T18:30:44.457Z,65.30
2019-05-15T18:33:13.365Z,65.90
2019-05-15T18:44:39.371Z,68.00
2019-05-15T18:53:32.104Z,68.60
2019-05-15T18:56:12.193Z,68.70
2019-05-15T19:02:31.131Z,70.30
2019-05-15T19:08:39.257Z,70.00
2019-05-15T19:14:39.505Z,69.80
2019-05-15T19:17:09.875Z,70.00
2019-05-15T19:20:01.350Z,70.80
2019-05-15T19:22:33.032Z,70.60
2019-05-15T19:25:11.931Z,70.70
2019-05-15T19:36:54.641Z,71.50
2019-05-15T19:46:28.371Z,72.60
2019-05-15T19:49:08.595Z,73.40
2019-05-15T19:58:08.677Z,72.50
2019-05-15T20:00:42.236Z,72.10
2019-05-15T20:09:32.447Z,73.50
2019-05-15T20:18:40.355Z,73.70
2019-05-15T22:07:50.925Z,79.10
2019-05-15T22:26:45.374Z,80.10
2019-05-15T22:29:24.469Z,79.60
2019-05-15T22:32:10.105Z,78.60
2019-05-15T22:37:48.958Z,79.10
2019-05-15T22:40:20.923Z,77.70
2019-05-15T22:43:08.269Z,78.60
2019-05-15T22:45:37.756Z,77.90
2019-05-15T22:48:06.794Z,78.50
2019-05-15T22:50:35.576Z,78.60
2019-05-15T22:53:14.251Z,79.50
2019-05-15T22:55:42.835Z,78.30
2019-05-15T22:58:11.830Z,78.50
2019-05-15T23:00:40.612Z,78.50
2019-05-15T23:03:09.113Z,77.30
2019-05-15T23:05:37.928Z,77.40
2019-05-15T23:08:07.866Z,78.60
2019-05-15T23:10:37.942Z,79.20
2019-05-15T23:13:07.156Z,78.80
2019-05-15T23:15:38.379Z,79.50
2019-05-15T23:18:08.588Z,79.50
2019-05-15T23:20:38.848Z,79.30
2019-05-15T23:23:08.754Z,78.60
2019-05-15T23:25:38.145Z,79.80
2019-05-15T23:28:08.515Z,79.70
